createdAt,value
2024-05-09T00:01:59.481Z,100.00
2024-05-09T00:04:30.171Z,100.00
2024-05-09T00:07:00.675Z,100.00
2024-05-09T00:09:33.178Z,100.00
2024-05-09T00:12:03.840Z,100.00
2024-05-09T00:14:33.834Z,100.00
2024-05-09T00:17:03.793Z,100.00
2024-05-09T00:19:34.322Z,100.00
2024-05-09T00:22:04.854Z,100.00
2024-05-09T00:24:38.272Z,100.00
2024-05-09T00:27:10.073Z,100.00
2024-05-09T00:29:41.752Z,100.00
2024-05-09T00:32:12.069Z,100.00
2024-05-09T00:34:43.088Z,100.00
2024-05-09T00:37:13.635Z,100.00
2024-05-09T00:39:46.244Z,94.72
2024-05-09T00:42:16.532Z,83.94
2024-05-09T00:44:46.924Z,79.99
2024-05-09T00:47:18.272Z,86.24
2024-05-09T00:49:49.496Z,97.88
2024-05-09T00:52:20.373Z,100.00
2024-05-09T00:54:53.707Z,100.00
2024-05-09T00:57:24.632Z,100.00
2024-05-09T00:59:56.287Z,100.00
2024-05-09T01:02:28.745Z,95.98
2024-05-09T01:04:59.483Z,94.66
2024-05-09T01:07:30.185Z,90.63
2024-05-09T01:10:11.494Z,82.07
2024-05-09T01:12:44.628Z,81.09
2024-05-09T01:15:20.636Z,77.06
2024-05-09T01:17:51.444Z,76.06
2024-05-09T01:20:31.809Z,72.07
2024-05-09T01:23:14.869Z,70.88
2024-05-09T01:25:47.248Z,71.07
2024-05-09T01:28:17.664Z,68.68
2024-05-09T01:30:47.611Z,68.51
2024-05-09T01:33:17.685Z,68.44
2024-05-09T01:35:47.678Z,67.66
2024-05-09T01:38:20.298Z,66.33
2024-05-09T01:40:51.023Z,65.53
2024-05-09T01:43:21.090Z,65.06
2024-05-09T01:45:51.606Z,65.38
2024-05-09T01:48:22.397Z,65.51
2024-05-09T01:50:56.025Z,66.84
2024-05-09T01:53:29.248Z,67.99
2024-05-09T01:55:59.328Z,66.50
2024-05-09T01:58:30.331Z,65.21
2024-05-09T02:01:00.852Z,65.30
2024-05-09T02:03:31.011Z,64.61
2024-05-09T02:06:01.733Z,65.18
2024-05-09T02:08:34.611Z,65.34
2024-05-09T02:11:05.237Z,66.23
2024-05-09T02:13:35.210Z,68.14
2024-05-09T02:16:05.881Z,67.44
2024-05-09T02:18:36.032Z,65.06
2024-05-09T02:21:06.932Z,63.54
2024-05-09T02:23:39.809Z,62.42
2024-05-09T02:26:10.751Z,59.81
2024-05-09T02:28:41.269Z,58.45
2024-05-09T02:31:14.698Z,57.22
2024-05-09T02:33:45.186Z,57.97
2024-05-09T02:36:15.858Z,59.17
2024-05-09T02:38:46.288Z,62.25
2024-05-09T02:41:16.871Z,64.83
2024-05-09T02:43:44.739Z,67.37
2024-05-09T02:46:15.188Z,67.31
2024-05-09T02:48:43.434Z,68.35
2024-05-09T02:51:14.021Z,70.50
2024-05-09T02:53:41.957Z,69.07
2024-05-09T02:56:15.159Z,67.86
2024-05-09T02:58:42.570Z,67.74
2024-05-09T03:01:12.624Z,67.49
2024-05-09T03:03:43.527Z,65.51
2024-05-09T03:06:14.162Z,64.95
2024-05-09T03:08:44.965Z,63.29
2024-05-09T03:11:26.236Z,62.93
2024-05-09T03:13:55.158Z,62.87
2024-05-09T03:16:25.194Z,62.24
2024-05-09T03:18:54.764Z,60.70
2024-05-09T03:21:24.933Z,61.06
2024-05-09T03:23:52.239Z,60.15
2024-05-09T03:26:25.388Z,58.91
2024-05-09T03:28:53.385Z,58.71
2024-05-09T03:31:23.882Z,59.09
2024-05-09T03:33:52.017Z,58.20
2024-05-09T03:36:22.675Z,56.41
2024-05-09T03:38:53.101Z,54.88
2024-05-09T03:41:26.330Z,54.86
2024-05-09T03:43:56.633Z,54.87
2024-05-09T03:46:26.589Z,52.57
2024-05-09T03:48:55.526Z,52.49
2024-05-09T03:51:26.012Z,52.64
2024-05-09T03:53:53.864Z,52.27
2024-05-09T03:56:26.705Z,51.89
2024-05-09T03:58:55.375Z,51.85
2024-05-09T04:01:25.608Z,51.72
2024-05-09T04:03:53.155Z,52.11
2024-05-09T04:06:26.533Z,52.10
2024-05-09T04:08:53.550Z,52.38
2024-05-09T04:11:29.757Z,52.04
2024-05-09T04:13:57.442Z,53.19
2024-05-09T04:16:27.370Z,53.14
2024-05-09T04:18:55.250Z,53.32
2024-05-09T04:21:25.782Z,52.57
2024-05-09T04:23:53.108Z,52.42
2024-05-09T04:26:23.215Z,52.45
2024-05-09T04:28:56.314Z,52.09
2024-05-09T04:31:29.611Z,50.85
2024-05-09T04:33:57.303Z,51.77
2024-05-09T04:36:27.292Z,51.54
2024-05-09T04:38:54.580Z,50.96
2024-05-09T04:41:24.485Z,50.21
2024-05-09T04:43:55.703Z,51.00
2024-05-09T04:46:26.197Z,50.16
2024-05-09T04:48:54.196Z,50.28
2024-05-09T04:51:25.264Z,49.65
2024-05-09T04:53:53.099Z,49.06
2024-05-09T04:56:23.077Z,49.30
2024-05-09T04:58:50.535Z,49.69
2024-05-09T05:01:23.783Z,48.65
2024-05-09T05:03:51.925Z,47.77
2024-05-09T05:06:22.676Z,47.99
2024-05-09T05:08:50.043Z,47.83
2024-05-09T05:11:20.043Z,47.16
2024-05-09T05:13:50.283Z,47.35
2024-05-09T05:16:20.250Z,47.09
2024-05-09T05:18:50.831Z,47.31
2024-05-09T05:21:21.068Z,46.04
2024-05-09T05:23:48.597Z,46.68
2024-05-09T05:26:20.568Z,46.14
2024-05-09T05:28:48.541Z,46.39
2024-05-09T05:31:21.575Z,45.76
2024-05-09T05:33:52.173Z,45.15
2024-05-09T05:36:23.450Z,44.42
2024-05-09T05:38:51.744Z,44.53
2024-05-09T05:41:21.817Z,44.60
2024-05-09T05:43:49.770Z,44.86
2024-05-09T05:46:20.286Z,45.49
2024-05-09T05:48:47.648Z,45.31
2024-05-09T05:51:20.863Z,44.83
2024-05-09T05:53:48.763Z,45.70
2024-05-09T05:56:19.269Z,46.35
2024-05-09T05:58:47.194Z,45.84
2024-05-09T06:01:17.736Z,45.30
2024-05-09T06:03:45.886Z,44.71
2024-05-09T06:06:16.552Z,44.86
2024-05-09T06:08:47.148Z,45.21
2024-05-09T06:11:17.666Z,45.27
2024-05-09T06:13:45.594Z,45.30
2024-05-09T06:16:15.588Z,45.43
2024-05-09T06:18:43.523Z,45.97
2024-05-09T06:21:13.543Z,45.08
2024-05-09T06:23:48.175Z,44.23
2024-05-09T06:26:18.831Z,45.07
2024-05-09T06:28:46.826Z,45.40
2024-05-09T06:31:17.354Z,45.29
2024-05-09T06:33:45.405Z,45.52
2024-05-09T06:36:16.039Z,45.20
2024-05-09T06:38:44.008Z,44.66
2024-05-09T06:41:17.226Z,44.73
2024-05-09T06:43:45.237Z,45.16
2024-05-09T06:46:15.743Z,44.60
2024-05-09T06:48:43.742Z,44.72
2024-05-09T06:51:13.862Z,44.73
2024-05-09T06:53:41.702Z,44.34
2024-05-09T06:56:11.760Z,44.84
2024-05-09T06:58:41.966Z,44.43
2024-05-09T07:01:11.890Z,44.47
2024-05-09T07:03:44.487Z,43.60
2024-05-09T07:06:12.507Z,44.30
2024-05-09T07:08:43.063Z,44.34
2024-05-09T07:11:10.487Z,44.21
2024-05-09T07:13:40.494Z,44.49
2024-05-09T07:16:10.443Z,44.31
2024-05-09T07:18:41.197Z,43.56
2024-05-09T07:21:09.372Z,42.78
2024-05-09T07:23:39.370Z,42.63
2024-05-09T07:26:07.224Z,42.68
2024-05-09T07:28:37.711Z,43.75
2024-05-09T07:31:05.291Z,42.75
2024-05-09T07:33:38.000Z,43.19
2024-05-09T07:36:06.367Z,42.64
2024-05-09T07:38:37.380Z,42.21
2024-05-09T07:41:06.755Z,41.99
2024-05-09T07:43:37.282Z,41.57
2024-05-09T07:47:04.445Z,41.69
2024-05-09T07:50:35.596Z,41.89
2024-05-09T07:54:19.728Z,42.41
2024-05-09T07:56:47.281Z,39.34
2024-05-09T07:59:17.748Z,37.32
2024-05-09T08:01:45.320Z,36.95
2024-05-09T08:04:18.648Z,37.20
2024-05-09T08:06:46.622Z,37.45
2024-05-09T08:09:20.974Z,38.08
2024-05-09T08:11:52.671Z,36.29
2024-05-09T08:14:23.288Z,35.76
2024-05-09T08:16:51.104Z,37.68
2024-05-09T08:19:23.693Z,36.39
2024-05-09T08:21:51.378Z,36.02
2024-05-09T08:24:21.414Z,35.61
2024-05-09T08:26:48.765Z,34.63
2024-05-09T08:29:19.205Z,34.31
2024-05-09T08:31:47.059Z,34.47
2024-05-09T08:34:17.680Z,34.28
2024-05-09T08:36:48.336Z,34.28
2024-05-09T08:39:18.316Z,34.46
2024-05-09T08:41:49.736Z,34.57
2024-05-09T08:44:21.306Z,34.39
2024-05-09T08:46:51.804Z,33.55
2024-05-09T08:49:22.389Z,34.05
2024-05-09T08:51:53.322Z,33.54
2024-05-09T08:54:23.393Z,34.18
2024-05-09T08:56:52.552Z,34.03
2024-05-09T08:59:30.105Z,33.07
2024-05-09T09:01:59.173Z,33.60
2024-05-09T09:04:31.371Z,33.96
2024-05-09T09:07:03.560Z,34.24
2024-05-09T09:09:35.245Z,34.40
2024-05-09T09:12:02.863Z,33.99
2024-05-09T09:14:33.362Z,34.96
2024-05-09T09:17:01.257Z,34.73
2024-05-09T09:19:31.821Z,34.71
2024-05-09T09:22:02.528Z,34.29
2024-05-09T09:24:33.011Z,34.24
2024-05-09T09:27:01.161Z,34.65
2024-05-09T09:29:32.006Z,34.42
2024-05-09T09:31:59.520Z,35.29
2024-05-09T09:34:31.419Z,34.40
2024-05-09T09:37:06.488Z,33.81
2024-05-09T09:39:38.064Z,34.43
2024-05-09T09:42:06.700Z,33.93
2024-05-09T09:44:39.598Z,34.24
2024-05-09T09:47:11.157Z,34.44
2024-05-09T09:49:42.328Z,33.73
2024-05-09T09:52:13.515Z,34.60
2024-05-09T09:54:46.659Z,34.66
2024-05-09T09:57:15.279Z,34.69
2024-05-09T09:59:49.576Z,35.27
2024-05-09T10:02:17.586Z,34.79
2024-05-09T10:04:47.792Z,34.42
2024-05-09T10:07:21.374Z,34.78
2024-05-09T10:09:52.151Z,34.59
2024-05-09T10:12:23.712Z,34.48
2024-05-09T10:14:56.839Z,34.59
2024-05-09T10:17:24.341Z,34.21
2024-05-09T10:19:54.328Z,33.69
2024-05-09T10:22:31.047Z,34.78
2024-05-09T10:25:08.110Z,34.40
2024-05-09T10:27:36.103Z,33.90
2024-05-09T10:30:14.354Z,33.70
2024-05-09T10:32:45.700Z,33.91
2024-05-09T10:35:16.003Z,33.90
2024-05-09T10:37:46.850Z,32.76
2024-05-09T10:40:25.912Z,33.19
2024-05-09T10:42:58.423Z,33.00
2024-05-09T10:45:29.314Z,32.65
2024-05-09T10:47:57.587Z,32.24
2024-05-09T10:50:34.021Z,32.93
2024-05-09T10:53:05.559Z,32.21
2024-05-09T10:55:38.933Z,31.91
2024-05-09T10:58:19.171Z,32.16
2024-05-09T11:00:49.196Z,32.72
2024-05-09T11:03:18.531Z,32.53
2024-05-09T11:05:50.086Z,32.25
2024-05-09T11:08:22.125Z,32.33
2024-05-09T11:10:55.078Z,32.13
2024-05-09T11:13:29.610Z,31.79
2024-05-09T11:16:00.443Z,31.66
2024-05-09T11:18:33.271Z,31.52
2024-05-09T11:21:14.692Z,30.65
2024-05-09T11:23:45.237Z,31.24
2024-05-09T11:26:19.282Z,31.36
2024-05-09T11:28:47.153Z,31.01
2024-05-09T11:31:17.966Z,30.87
2024-05-09T11:33:46.762Z,30.69
2024-05-09T11:36:18.083Z,30.72
2024-05-09T11:38:48.682Z,30.67
2024-05-09T11:41:21.521Z,30.00
2024-05-09T11:43:49.442Z,29.83
2024-05-09T11:46:22.501Z,29.31
2024-05-09T11:48:49.721Z,29.32
2024-05-09T11:51:20.263Z,29.42
2024-05-09T11:53:50.767Z,29.26
2024-05-09T11:56:21.245Z,29.68
2024-05-09T11:58:49.122Z,29.99
2024-05-09T12:01:20.125Z,29.61
2024-05-09T12:03:49.638Z,29.44
2024-05-09T12:06:20.414Z,28.89
2024-05-09T12:08:51.008Z,29.33
2024-05-09T12:11:22.256Z,29.25
2024-05-09T12:13:50.159Z,28.73
2024-05-09T12:16:21.018Z,28.89
2024-05-09T12:18:49.113Z,28.28
2024-05-09T12:21:19.740Z,28.17
2024-05-09T12:23:47.624Z,28.39
2024-05-09T12:26:23.203Z,28.25
2024-05-09T12:28:51.019Z,27.65
2024-05-09T12:31:21.544Z,28.08
2024-05-09T12:33:49.460Z,28.17
2024-05-09T12:36:20.022Z,28.93
2024-05-09T12:38:49.989Z,29.30
2024-05-09T12:41:23.213Z,28.10
2024-05-09T12:43:50.531Z,27.56
2024-05-09T12:46:23.375Z,27.12
2024-05-09T12:48:51.190Z,26.96
2024-05-09T12:51:21.134Z,26.66
2024-05-09T12:53:49.055Z,26.98
2024-05-09T12:56:19.094Z,27.59
2024-05-09T12:58:51.149Z,27.61
2024-05-09T13:01:21.279Z,27.31
2024-05-09T13:03:49.495Z,27.13
2024-05-09T13:06:19.559Z,27.40
2024-05-09T13:08:47.983Z,27.44
2024-05-09T13:11:18.719Z,26.70
2024-05-09T13:13:46.666Z,27.26
2024-05-09T13:16:19.412Z,26.99
2024-05-09T13:18:47.352Z,26.92
2024-05-09T13:21:17.433Z,26.74
2024-05-09T13:23:45.669Z,27.16
2024-05-09T13:26:16.225Z,27.94
2024-05-09T13:28:43.668Z,27.79
2024-05-09T13:31:14.319Z,27.88
2024-05-09T13:33:45.069Z,27.94
2024-05-09T13:36:15.881Z,27.71
2024-05-09T13:38:43.785Z,27.54
2024-05-09T13:41:16.747Z,27.63
2024-05-09T13:43:44.061Z,27.11
2024-05-09T13:46:14.742Z,27.17
2024-05-09T13:48:45.741Z,27.14
2024-05-09T13:51:15.693Z,27.30
2024-05-09T13:53:43.535Z,27.35
2024-05-09T13:56:14.046Z,27.02
2024-05-09T13:58:42.336Z,26.46
2024-05-09T14:01:12.382Z,26.17
2024-05-09T14:03:40.371Z,25.63
2024-05-09T14:06:13.578Z,25.44
2024-05-09T14:08:41.187Z,24.69
2024-05-09T14:11:11.720Z,23.99
2024-05-09T14:13:39.620Z,23.93
2024-05-09T14:16:10.303Z,24.24
2024-05-09T14:18:38.346Z,24.86
2024-05-09T14:21:08.562Z,25.17
2024-05-09T14:23:39.085Z,25.45
2024-05-09T14:26:12.446Z,25.89
2024-05-09T14:28:40.327Z,25.54
2024-05-09T14:31:10.898Z,25.48
2024-05-09T14:33:38.465Z,25.43
2024-05-09T14:36:09.841Z,25.25
2024-05-09T14:38:40.481Z,25.53
2024-05-09T14:41:13.410Z,25.83
2024-05-09T14:43:41.323Z,25.72
2024-05-09T14:46:12.027Z,25.89
2024-05-09T14:48:40.242Z,25.74
2024-05-09T14:51:11.081Z,26.14
2024-05-09T14:53:41.560Z,25.58
2024-05-09T14:56:11.978Z,25.72
2024-05-09T14:58:39.863Z,25.93
2024-05-09T15:01:09.907Z,25.69
2024-05-09T15:03:37.484Z,25.87
2024-05-09T15:06:07.930Z,25.82
2024-05-09T15:08:35.940Z,25.99
2024-05-09T15:11:09.188Z,25.93
2024-05-09T15:13:37.224Z,26.66
2024-05-09T15:16:08.479Z,26.58
2024-05-09T15:18:36.706Z,25.51
2024-05-09T15:21:08.263Z,25.17
2024-05-09T15:23:36.181Z,25.62
2024-05-09T15:26:08.912Z,25.80
2024-05-09T15:28:36.903Z,25.32
2024-05-09T15:31:07.704Z,25.75
2024-05-09T15:33:35.697Z,26.18
2024-05-09T15:36:06.474Z,26.22
2024-05-09T15:38:33.843Z,26.20
2024-05-09T15:41:04.413Z,26.23
2024-05-09T15:43:35.815Z,26.12
2024-05-09T15:46:05.997Z,26.16
2024-05-09T15:48:34.509Z,26.13
2024-05-09T15:51:05.506Z,25.76
2024-05-09T15:53:33.373Z,25.73
2024-05-09T15:56:03.568Z,25.03
2024-05-09T15:58:31.509Z,25.72
2024-05-09T16:01:04.773Z,25.14
2024-05-09T16:03:32.804Z,25.14
2024-05-09T16:06:03.902Z,25.52
2024-05-09T16:08:32.005Z,25.34
2024-05-09T16:11:02.209Z,24.42
2024-05-09T16:13:30.165Z,24.42
2024-05-09T16:16:00.978Z,24.72
2024-05-09T16:18:31.496Z,24.45
2024-05-09T16:21:02.188Z,24.71
2024-05-09T16:23:30.418Z,24.62
2024-05-09T16:26:00.415Z,24.60
2024-05-09T16:28:28.534Z,24.64
2024-05-09T16:31:01.430Z,24.72
2024-05-09T16:33:32.134Z,25.10
2024-05-09T16:36:02.940Z,25.06
2024-05-09T16:38:31.235Z,25.11
2024-05-09T16:41:01.772Z,24.93
2024-05-09T16:43:29.184Z,24.71
2024-05-09T16:45:59.785Z,24.89
2024-05-09T16:48:27.165Z,25.09
2024-05-09T16:50:59.841Z,25.49
2024-05-09T16:53:27.850Z,25.55
2024-05-09T16:55:57.909Z,25.28
2024-05-09T16:58:26.633Z,25.55
2024-05-09T17:00:57.713Z,25.84
2024-05-09T17:03:25.699Z,25.68
2024-05-09T17:05:59.275Z,26.07
2024-05-09T17:08:27.158Z,26.06
2024-05-09T17:10:58.163Z,26.07
2024-05-09T17:13:28.830Z,26.55
2024-05-09T17:15:56.279Z,26.48
2024-05-09T17:18:27.382Z,26.53
2024-05-09T17:20:57.855Z,26.62
2024-05-09T17:23:29.219Z,27.01
2024-05-09T17:25:57.138Z,26.86
2024-05-09T17:28:27.243Z,27.24
2024-05-09T17:30:58.065Z,27.24
2024-05-09T17:33:25.509Z,26.99
2024-05-09T17:35:55.619Z,27.05
2024-05-09T17:38:26.196Z,27.34
2024-05-09T17:41:00.660Z,27.61
2024-05-09T17:43:29.046Z,28.25
2024-05-09T17:45:59.808Z,27.90
2024-05-09T17:48:27.600Z,28.29
2024-05-09T17:50:58.116Z,27.95
2024-05-09T17:53:28.629Z,28.26
2024-05-09T17:56:00.397Z,28.30
2024-05-09T17:58:28.534Z,28.67
2024-05-09T18:00:58.735Z,28.46
2024-05-09T18:03:27.264Z,28.64
2024-05-09T18:05:58.152Z,28.91
2024-05-09T18:08:28.658Z,28.77
2024-05-09T18:11:02.406Z,29.08
2024-05-09T18:13:30.478Z,29.46
2024-05-09T18:16:01.280Z,29.33
2024-05-09T18:18:32.365Z,29.61
2024-05-09T18:21:02.981Z,29.67
2024-05-09T18:23:33.753Z,29.82
2024-05-09T18:26:05.721Z,29.90
2024-05-09T18:28:33.710Z,30.31
2024-05-09T18:31:04.280Z,30.03
2024-05-09T18:33:31.889Z,30.33
2024-05-09T18:36:02.604Z,30.50
2024-05-09T18:38:35.204Z,30.48
2024-05-09T18:41:02.915Z,31.53
2024-05-09T18:43:38.544Z,31.35
2024-05-09T18:46:12.191Z,31.50
2024-05-09T18:48:43.082Z,32.27
2024-05-09T18:51:11.533Z,32.53
2024-05-09T18:53:45.062Z,33.04
2024-05-09T18:56:16.328Z,32.56
2024-05-09T18:58:46.851Z,33.20
2024-05-09T19:01:14.928Z,33.04
2024-05-09T19:03:45.714Z,32.76
2024-05-09T19:06:13.921Z,33.42
2024-05-09T19:08:47.672Z,33.81
2024-05-09T19:11:15.352Z,33.82
2024-05-09T19:13:45.910Z,34.34
2024-05-09T19:16:13.428Z,34.63
2024-05-09T19:18:44.739Z,34.55
2024-05-09T19:21:14.443Z,34.91
2024-05-09T19:23:52.120Z,34.83
2024-05-09T19:26:20.447Z,34.66
2024-05-09T19:28:50.953Z,34.68
2024-05-09T19:31:18.622Z,35.25
2024-05-09T19:33:48.835Z,35.34
2024-05-09T19:36:19.230Z,35.97
2024-05-09T19:38:52.523Z,36.11
2024-05-09T19:41:20.260Z,36.53
2024-05-09T19:43:50.949Z,36.91
2024-05-09T19:46:19.284Z,36.54
2024-05-09T19:48:49.556Z,36.93
2024-05-09T19:51:17.733Z,36.56
2024-05-09T19:53:48.384Z,37.21
2024-05-09T19:56:19.010Z,37.20
2024-05-09T19:58:49.489Z,37.56
2024-05-09T20:01:17.843Z,37.15
2024-05-09T20:03:48.546Z,38.31
2024-05-09T20:06:16.581Z,38.54
2024-05-09T20:08:46.590Z,39.03
2024-05-09T20:11:15.344Z,39.60
2024-05-09T20:13:48.524Z,39.67
2024-05-09T20:16:16.530Z,40.15
2024-05-09T20:18:47.899Z,40.53
2024-05-09T20:21:15.956Z,40.87
2024-05-09T20:23:45.940Z,41.16
2024-05-09T20:26:13.873Z,42.16
2024-05-09T20:28:44.988Z,42.04
2024-05-09T20:31:20.518Z,43.66
2024-05-09T20:33:51.220Z,42.99
2024-05-09T20:36:19.073Z,43.58
2024-05-09T20:38:49.126Z,43.97
2024-05-09T20:41:16.977Z,45.11
2024-05-09T20:43:47.018Z,45.34
2024-05-09T20:46:17.842Z,45.63
2024-05-09T20:48:48.463Z,45.20
2024-05-09T20:51:15.880Z,45.59
2024-05-09T20:53:45.875Z,45.62
2024-05-09T20:56:15.033Z,45.84
2024-05-09T20:58:45.561Z,45.98
2024-05-09T21:01:13.470Z,46.89
2024-05-09T21:03:47.531Z,46.93
2024-05-09T21:06:15.556Z,46.67
2024-05-09T21:08:46.058Z,47.61
2024-05-09T21:11:13.618Z,47.21
2024-05-09T21:13:44.192Z,47.87
2024-05-09T21:16:11.694Z,48.41
2024-05-09T21:18:42.296Z,48.32
2024-05-09T21:21:12.325Z,48.00
2024-05-09T21:23:42.833Z,48.45
2024-05-09T21:26:10.766Z,48.38
2024-05-09T21:28:40.720Z,49.19
2024-05-09T21:31:08.982Z,48.65
2024-05-09T21:33:39.151Z,48.75
2024-05-09T21:36:11.802Z,49.75
2024-05-09T21:38:43.080Z,50.11
2024-05-09T21:41:10.525Z,50.81
2024-05-09T21:43:41.454Z,50.59
2024-05-09T21:46:09.427Z,49.98
2024-05-09T21:48:40.132Z,50.48
2024-05-09T21:51:15.985Z,51.11
2024-05-09T21:53:45.988Z,50.52
2024-05-09T21:56:13.837Z,50.82
2024-05-09T21:58:43.789Z,50.63
2024-05-09T22:01:11.757Z,50.38
2024-05-09T22:03:42.194Z,50.85
2024-05-09T22:06:10.100Z,50.89
2024-05-09T22:08:43.017Z,50.29
2024-05-09T22:11:10.820Z,51.37
2024-05-09T22:13:44.008Z,51.65
2024-05-09T22:16:12.066Z,52.15
2024-05-09T22:18:42.793Z,52.51
2024-05-09T22:21:10.608Z,52.88
2024-05-09T22:23:43.147Z,52.25
2024-05-09T22:26:10.910Z,52.01
2024-05-09T22:28:40.727Z,52.26
2024-05-09T22:31:08.836Z,52.48
2024-05-09T22:33:39.586Z,53.25
2024-05-09T22:36:08.680Z,53.17
2024-05-09T22:38:39.347Z,52.66
2024-05-09T22:41:09.653Z,53.58
2024-05-09T22:43:40.031Z,52.95
2024-05-09T22:46:10.480Z,53.82
2024-05-09T22:48:38.207Z,53.81
2024-05-09T22:51:08.995Z,53.65
2024-05-09T22:53:36.745Z,53.45
2024-05-09T22:56:08.003Z,54.23
2024-05-09T22:58:38.008Z,55.16
2024-05-09T23:01:08.399Z,55.00
2024-05-09T23:03:39.266Z,55.32
2024-05-09T23:06:09.579Z,55.55
2024-05-09T23:08:36.870Z,56.35
2024-05-09T23:11:08.597Z,57.24
2024-05-09T23:13:39.216Z,57.61
2024-05-09T23:16:10.037Z,58.39
2024-05-09T23:18:37.501Z,57.81
2024-05-09T23:21:07.990Z,58.15
2024-05-09T23:23:35.256Z,57.86
2024-05-09T23:26:05.661Z,58.07
2024-05-09T23:28:33.617Z,58.47
2024-05-09T23:31:07.601Z,59.08
2024-05-09T23:33:35.709Z,59.38
2024-05-09T23:36:06.523Z,60.39
2024-05-09T23:38:33.735Z,60.54
2024-05-09T23:41:06.418Z,60.67
2024-05-09T23:43:36.225Z,61.07
2024-05-09T23:46:09.249Z,60.95
2024-05-09T23:48:37.179Z,60.60
2024-05-09T23:51:07.919Z,61.06
2024-05-09T23:53:35.219Z,60.63
2024-05-09T23:56:05.602Z,61.53
2024-05-09T23:58:33.394Z,62.32
